Terminal Aerodrome Forecast
Issued by NWS Sterling, VA

Current Version | Previous Version | Text Only | Print | Product List | Glossary Off
Versions: 1 2 3 4 5 6 7 8 9 10 11 12 13 14 15 16 17 18 19 20 21 22 23 24 25 26

000
FTUS41 KLWX 290800 AAA
TAFIAD
TAF AMD
KIAD 290842Z 2909/3012 02003KT P6SM SKC
     FM291600 07006KT P6SM SCT250
     FM292100 13007KT P6SM FEW050 SCT250
     FM300000 VRB03KT P6SM SCT250=

USA.gov is the U.S. government's official web portal to all federal, state and local government web resources and services.